sensor_id;sensor_type;location;lat;lon;timestamp;temperature;humidity
43647;DHT22;56152;49.996;18.980;2024-02-26T00:01:33;2.60;92.00
43647;DHT22;56152;49.996;18.980;2024-02-26T00:06:36;2.60;92.10
43647;DHT22;56152;49.996;18.980;2024-02-26T00:11:41;2.70;92.10
43647;DHT22;56152;49.996;18.980;2024-02-26T00:16:45;2.60;92.10
43647;DHT22;56152;49.996;18.980;2024-02-26T00:21:47;2.50;92.10
43647;DHT22;56152;49.996;18.980;2024-02-26T00:26:49;2.40;92.20
43647;DHT22;56152;49.996;18.980;2024-02-26T00:32:07;2.30;92.20
43647;DHT22;56152;49.996;18.980;2024-02-26T00:37:11;2.20;92.30
43647;DHT22;56152;49.996;18.980;2024-02-26T00:42:13;2.10;92.40
43647;DHT22;56152;49.996;18.980;2024-02-26T00:47:17;2.10;92.40
43647;DHT22;56152;49.996;18.980;2024-02-26T00:52:19;2.10;92.60
43647;DHT22;56152;49.996;18.980;2024-02-26T00:57:21;2.10;92.50
43647;DHT22;56152;49.996;18.980;2024-02-26T01:02:25;2.20;92.50
43647;DHT22;56152;49.996;18.980;2024-02-26T01:07:27;2.20;92.60
43647;DHT22;56152;49.996;18.980;2024-02-26T01:12:29;2.20;92.60
43647;DHT22;56152;49.996;18.980;2024-02-26T01:17:33;2.20;92.50
43647;DHT22;56152;49.996;18.980;2024-02-26T01:22:37;2.20;92.60
43647;DHT22;56152;49.996;18.980;2024-02-26T01:27:42;2.20;92.70
43647;DHT22;56152;49.996;18.980;2024-02-26T01:32:46;2.10;92.70
43647;DHT22;56152;49.996;18.980;2024-02-26T01:37:48;2.20;92.80
43647;DHT22;56152;49.996;18.980;2024-02-26T01:42:52;2.10;92.80
43647;DHT22;56152;49.996;18.980;2024-02-26T01:47:58;2.10;92.80
43647;DHT22;56152;49.996;18.980;2024-02-26T01:53:00;2.10;92.70
43647;DHT22;56152;49.996;18.980;2024-02-26T01:58:03;2.00;92.70
43647;DHT22;56152;49.996;18.980;2024-02-26T02:03:07;1.90;92.80
43647;DHT22;56152;49.996;18.980;2024-02-26T02:08:19;1.90;93.20
43647;DHT22;56152;49.996;18.980;2024-02-26T02:13:26;1.80;92.90
43647;DHT22;56152;49.996;18.980;2024-02-26T02:18:31;1.60;93.00
43647;DHT22;56152;49.996;18.980;2024-02-26T02:23:41;1.50;93.00
43647;DHT22;56152;49.996;18.980;2024-02-26T02:28:48;1.40;93.10
43647;DHT22;56152;49.996;18.980;2024-02-26T02:33:51;1.30;93.20
43647;DHT22;56152;49.996;18.980;2024-02-26T02:38:55;1.30;93.20
43647;DHT22;56152;49.996;18.980;2024-02-26T02:43:57;1.20;93.30
43647;DHT22;56152;49.996;18.980;2024-02-26T02:49:08;1.20;93.30
43647;DHT22;56152;49.996;18.980;2024-02-26T02:54:15;1.20;93.30
43647;DHT22;56152;49.996;18.980;2024-02-26T02:59:17;1.10;93.30
43647;DHT22;56152;49.996;18.980;2024-02-26T03:04:19;1.10;93.40
43647;DHT22;56152;49.996;18.980;2024-02-26T03:09:23;1.10;93.40
43647;DHT22;56152;49.996;18.980;2024-02-26T03:14:25;1.20;93.40
43647;DHT22;56152;49.996;18.980;2024-02-26T03:19:27;1.20;93.40
43647;DHT22;56152;49.996;18.980;2024-02-26T03:24:31;1.20;93.40
43647;DHT22;56152;49.996;18.980;2024-02-26T03:29:33;1.20;93.40
43647;DHT22;56152;49.996;18.980;2024-02-26T03:34:35;1.00;93.40
43647;DHT22;56152;49.996;18.980;2024-02-26T03:39:44;1.00;93.50
43647;DHT22;56152;49.996;18.980;2024-02-26T03:44:46;0.90;93.50
43647;DHT22;56152;49.996;18.980;2024-02-26T03:49:48;0.80;93.60
43647;DHT22;56152;49.996;18.980;2024-02-26T03:54:52;0.80;93.60
43647;DHT22;56152;49.996;18.980;2024-02-26T03:59:54;0.90;93.60
43647;DHT22;56152;49.996;18.980;2024-02-26T04:05:01;1.00;93.60
43647;DHT22;56152;49.996;18.980;2024-02-26T04:10:09;1.00;93.60
43647;DHT22;56152;49.996;18.980;2024-02-26T04:15:12;1.10;93.80
43647;DHT22;56152;49.996;18.980;2024-02-26T04:20:15;1.20;93.80
43647;DHT22;56152;49.996;18.980;2024-02-26T04:25:19;1.10;93.70
43647;DHT22;56152;49.996;18.980;2024-02-26T04:30:21;1.10;93.80
43647;DHT22;56152;49.996;18.980;2024-02-26T04:35:23;1.00;93.80
43647;DHT22;56152;49.996;18.980;2024-02-26T04:40:26;0.90;93.90
43647;DHT22;56152;49.996;18.980;2024-02-26T04:45:28;0.80;93.90
43647;DHT22;56152;49.996;18.980;2024-02-26T04:50:30;0.70;94.00
43647;DHT22;56152;49.996;18.980;2024-02-26T04:55:34;0.80;94.10
43647;DHT22;56152;49.996;18.980;2024-02-26T05:00:36;0.80;94.10
43647;DHT22;56152;49.996;18.980;2024-02-26T05:05:37;0.90;94.10
43647;DHT22;56152;49.996;18.980;2024-02-26T05:10:44;1.00;94.10
43647;DHT22;56152;49.996;18.980;2024-02-26T05:15:46;1.00;94.10
43647;DHT22;56152;49.996;18.980;2024-02-26T05:20:49;0.90;94.10
43647;DHT22;56152;49.996;18.980;2024-02-26T05:25:53;0.90;94.10
43647;DHT22;56152;49.996;18.980;2024-02-26T05:30:55;0.90;94.30
43647;DHT22;56152;49.996;18.980;2024-02-26T05:36:00;1.00;94.30
43647;DHT22;56152;49.996;18.980;2024-02-26T05:41:06;1.10;94.30
43647;DHT22;56152;49.996;18.980;2024-02-26T05:46:10;1.20;94.30
43647;DHT22;56152;49.996;18.980;2024-02-26T05:51:12;1.20;94.20
43647;DHT22;56152;49.996;18.980;2024-02-26T05:56:16;1.40;94.30
43647;DHT22;56152;49.996;18.980;2024-02-26T06:01:21;1.70;94.10
43647;DHT22;56152;49.996;18.980;2024-02-26T06:06:25;1.70;94.10
43647;DHT22;56152;49.996;18.980;2024-02-26T06:11:28;1.70;94.10
43647;DHT22;56152;49.996;18.980;2024-02-26T06:16:30;1.80;94.20
43647;DHT22;56152;49.996;18.980;2024-02-26T06:21:39;1.90;94.10
43647;DHT22;56152;49.996;18.980;2024-02-26T06:26:43;2.00;94.10
43647;DHT22;56152;49.996;18.980;2024-02-26T06:31:47;2.00;94.10
43647;DHT22;56152;49.996;18.980;2024-02-26T06:36:51;2.10;94.00
43647;DHT22;56152;49.996;18.980;2024-02-26T06:41:55;2.30;94.10
43647;DHT22;56152;49.996;18.980;2024-02-26T06:47:01;2.50;94.10
43647;DHT22;56152;49.996;18.980;2024-02-26T06:52:03;2.80;93.90
43647;DHT22;56152;49.996;18.980;2024-02-26T06:57:12;3.10;93.80
43647;DHT22;56152;49.996;18.980;2024-02-26T07:02:14;3.40;93.80
43647;DHT22;56152;49.996;18.980;2024-02-26T07:07:16;3.90;93.60
43647;DHT22;56152;49.996;18.980;2024-02-26T07:12:21;4.10;93.40
43647;DHT22;56152;49.996;18.980;2024-02-26T07:17:26;4.40;93.40
43647;DHT22;56152;49.996;18.980;2024-02-26T07:22:28;4.90;93.10
43647;DHT22;56152;49.996;18.980;2024-02-26T07:27:32;5.10;92.90
43647;DHT22;56152;49.996;18.980;2024-02-26T07:32:34;5.10;92.90
43647;DHT22;56152;49.996;18.980;2024-02-26T07:37:36;5.30;93.00
43647;DHT22;56152;49.996;18.980;2024-02-26T07:42:40;5.30;93.00
43647;DHT22;56152;49.996;18.980;2024-02-26T07:47:42;5.30;93.00
43647;DHT22;56152;49.996;18.980;2024-02-26T07:52:44;5.40;93.20
43647;DHT22;56152;49.996;18.980;2024-02-26T07:57:48;5.80;93.20
43647;DHT22;56152;49.996;18.980;2024-02-26T08:02:50;6.30;93.10
43647;DHT22;56152;49.996;18.980;2024-02-26T08:07:52;6.50;92.70
43647;DHT22;56152;49.996;18.980;2024-02-26T08:12:57;6.70;92.60
43647;DHT22;56152;49.996;18.980;2024-02-26T08:18:05;6.90;92.60
43647;DHT22;56152;49.996;18.980;2024-02-26T08:23:12;7.00;92.80
43647;DHT22;56152;49.996;18.980;2024-02-26T08:28:16;7.00;92.40
43647;DHT22;56152;49.996;18.980;2024-02-26T08:33:19;7.10;92.40
43647;DHT22;56152;49.996;18.980;2024-02-26T08:38:21;7.20;92.50
43647;DHT22;56152;49.996;18.980;2024-02-26T08:43:25;7.20;92.50
43647;DHT22;56152;49.996;18.980;2024-02-26T08:48:27;7.30;92.50
43647;DHT22;56152;49.996;18.980;2024-02-26T08:53:28;7.50;92.50
43647;DHT22;56152;49.996;18.980;2024-02-26T08:58:35;7.80;92.40
43647;DHT22;56152;49.996;18.980;2024-02-26T09:03:39;8.10;92.20
43647;DHT22;56152;49.996;18.980;2024-02-26T09:08:47;8.50;92.00
43647;DHT22;56152;49.996;18.980;2024-02-26T09:13:51;9.00;91.70
43647;DHT22;56152;49.996;18.980;2024-02-26T09:18:53;9.40;91.40
43647;DHT22;56152;49.996;18.980;2024-02-26T09:23:55;9.80;91.10
43647;DHT22;56152;49.996;18.980;2024-02-26T09:29:00;10.10;90.90
43647;DHT22;56152;49.996;18.980;2024-02-26T09:34:02;10.40;90.70
43647;DHT22;56152;49.996;18.980;2024-02-26T09:39:05;10.60;90.50
43647;DHT22;56152;49.996;18.980;2024-02-26T09:44:18;10.70;90.40
43647;DHT22;56152;49.996;18.980;2024-02-26T09:49:24;10.80;90.40
43647;DHT22;56152;49.996;18.980;2024-02-26T09:54:26;11.00;90.30
43647;DHT22;56152;49.996;18.980;2024-02-26T09:59:38;11.10;89.80
43647;DHT22;56152;49.996;18.980;2024-02-26T10:04:42;11.20;89.30
43647;DHT22;56152;49.996;18.980;2024-02-26T10:09:46;11.20;89.00
43647;DHT22;56152;49.996;18.980;2024-02-26T10:14:50;11.40;88.70
43647;DHT22;56152;49.996;18.980;2024-02-26T10:19:52;11.50;88.30
43647;DHT22;56152;49.996;18.980;2024-02-26T10:24:56;11.60;88.00
43647;DHT22;56152;49.996;18.980;2024-02-26T10:30:05;11.70;87.80
43647;DHT22;56152;49.996;18.980;2024-02-26T10:35:17;11.80;87.60
43647;DHT22;56152;49.996;18.980;2024-02-26T10:40:21;12.10;87.40
43647;DHT22;56152;49.996;18.980;2024-02-26T10:45:25;12.20;86.80
43647;DHT22;56152;49.996;18.980;2024-02-26T10:50:26;12.30;86.60
43647;DHT22;56152;49.996;18.980;2024-02-26T10:55:28;12.20;86.40
43647;DHT22;56152;49.996;18.980;2024-02-26T11:00:32;12.20;86.30
43647;DHT22;56152;49.996;18.980;2024-02-26T11:05:35;12.20;86.10
43647;DHT22;56152;49.996;18.980;2024-02-26T11:10:38;12.20;86.30
43647;DHT22;56152;49.996;18.980;2024-02-26T11:15:47;12.30;86.20
43647;DHT22;56152;49.996;18.980;2024-02-26T11:20:51;12.30;85.90
43647;DHT22;56152;49.996;18.980;2024-02-26T11:25:58;12.30;85.60
43647;DHT22;56152;49.996;18.980;2024-02-26T11:31:03;12.40;85.40
43647;DHT22;56152;49.996;18.980;2024-02-26T11:36:09;12.40;85.20
43647;DHT22;56152;49.996;18.980;2024-02-26T11:41:11;12.40;85.10
43647;DHT22;56152;49.996;18.980;2024-02-26T11:46:27;12.40;85.70
43647;DHT22;56152;49.996;18.980;2024-02-26T11:51:33;12.40;85.10
43647;DHT22;56152;49.996;18.980;2024-02-26T11:56:40;12.30;84.90
43647;DHT22;56152;49.996;18.980;2024-02-26T12:01:45;12.30;85.00
43647;DHT22;56152;49.996;18.980;2024-02-26T12:06:51;12.20;85.20
43647;DHT22;56152;49.996;18.980;2024-02-26T12:11:55;12.20;85.20
43647;DHT22;56152;49.996;18.980;2024-02-26T12:17:07;12.20;85.30
43647;DHT22;56152;49.996;18.980;2024-02-26T12:22:13;12.10;85.60
43647;DHT22;56152;49.996;18.980;2024-02-26T12:27:15;12.10;85.70
43647;DHT22;56152;49.996;18.980;2024-02-26T12:32:19;12.00;85.90
43647;DHT22;56152;49.996;18.980;2024-02-26T12:37:20;12.00;86.00
43647;DHT22;56152;49.996;18.980;2024-02-26T12:42:25;11.90;86.20
43647;DHT22;56152;49.996;18.980;2024-02-26T12:47:28;11.90;86.40
43647;DHT22;56152;49.996;18.980;2024-02-26T12:52:31;11.90;86.60
43647;DHT22;56152;49.996;18.980;2024-02-26T12:57:33;11.90;86.70
43647;DHT22;56152;49.996;18.980;2024-02-26T13:02:37;11.90;86.80
43647;DHT22;56152;49.996;18.980;2024-02-26T13:07:46;11.90;86.90
43647;DHT22;56152;49.996;18.980;2024-02-26T13:12:49;12.00;86.90
43647;DHT22;56152;49.996;18.980;2024-02-26T13:17:54;12.10;86.90
43647;DHT22;56152;49.996;18.980;2024-02-26T13:23:03;12.20;87.00
43647;DHT22;56152;49.996;18.980;2024-02-26T13:28:07;12.20;86.80
43647;DHT22;56152;49.996;18.980;2024-02-26T13:33:12;12.30;87.50
43647;DHT22;56152;49.996;18.980;2024-02-26T13:38:14;12.30;86.60
43647;DHT22;56152;49.996;18.980;2024-02-26T13:43:16;12.40;86.60
43647;DHT22;56152;49.996;18.980;2024-02-26T13:48:20;12.40;87.20
43647;DHT22;56152;49.996;18.980;2024-02-26T13:53:23;12.40;86.60
43647;DHT22;56152;49.996;18.980;2024-02-26T13:58:25;12.40;86.80
43647;DHT22;56152;49.996;18.980;2024-02-26T14:03:29;12.40;86.90
43647;DHT22;56152;49.996;18.980;2024-02-26T14:08:31;12.40;86.90
43647;DHT22;56152;49.996;18.980;2024-02-26T14:13:35;12.40;87.00
43647;DHT22;56152;49.996;18.980;2024-02-26T14:18:39;12.50;87.10
43647;DHT22;56152;49.996;18.980;2024-02-26T14:23:41;12.50;87.00
43647;DHT22;56152;49.996;18.980;2024-02-26T14:28:47;12.50;87.00
43647;DHT22;56152;49.996;18.980;2024-02-26T14:33:50;12.50;87.30
43647;DHT22;56152;49.996;18.980;2024-02-26T14:38:54;12.40;87.70
43647;DHT22;56152;49.996;18.980;2024-02-26T14:43:56;12.40;87.90
43647;DHT22;56152;49.996;18.980;2024-02-26T14:48:59;12.40;87.90
43647;DHT22;56152;49.996;18.980;2024-02-26T14:54:01;12.50;87.70
43647;DHT22;56152;49.996;18.980;2024-02-26T14:59:03;12.40;87.60
43647;DHT22;56152;49.996;18.980;2024-02-26T15:04:07;12.40;87.70
43647;DHT22;56152;49.996;18.980;2024-02-26T15:09:09;12.30;87.90
43647;DHT22;56152;49.996;18.980;2024-02-26T15:14:11;12.30;88.10
43647;DHT22;56152;49.996;18.980;2024-02-26T15:19:15;12.20;88.30
43647;DHT22;56152;49.996;18.980;2024-02-26T15:24:17;12.20;88.40
43647;DHT22;56152;49.996;18.980;2024-02-26T15:29:19;12.10;88.50
43647;DHT22;56152;49.996;18.980;2024-02-26T15:34:22;12.10;88.60
43647;DHT22;56152;49.996;18.980;2024-02-26T15:39:24;11.90;88.80
43647;DHT22;56152;49.996;18.980;2024-02-26T15:44:26;11.80;88.90
43647;DHT22;56152;49.996;18.980;2024-02-26T15:49:30;11.60;89.10
43647;DHT22;56152;49.996;18.980;2024-02-26T15:54:32;11.50;89.30
43647;DHT22;56152;49.996;18.980;2024-02-26T15:59:34;11.40;89.50
43647;DHT22;56152;49.996;18.980;2024-02-26T16:04:37;11.20;89.70
43647;DHT22;56152;49.996;18.980;2024-02-26T16:09:39;11.00;90.00
43647;DHT22;56152;49.996;18.980;2024-02-26T16:14:46;10.90;90.10
43647;DHT22;56152;49.996;18.980;2024-02-26T16:19:49;10.80;90.20
43647;DHT22;56152;49.996;18.980;2024-02-26T16:24:52;10.80;90.30
43647;DHT22;56152;49.996;18.980;2024-02-26T16:29:59;10.70;90.30
43647;DHT22;56152;49.996;18.980;2024-02-26T16:35:03;10.70;90.40
43647;DHT22;56152;49.996;18.980;2024-02-26T16:40:06;10.60;90.50
43647;DHT22;56152;49.996;18.980;2024-02-26T16:45:10;10.50;90.60
43647;DHT22;56152;49.996;18.980;2024-02-26T16:50:14;10.50;90.70
43647;DHT22;56152;49.996;18.980;2024-02-26T16:55:16;10.40;91.00
43647;DHT22;56152;49.996;18.980;2024-02-26T17:00:21;10.30;90.80
43647;DHT22;56152;49.996;18.980;2024-02-26T17:05:25;10.30;90.90
43647;DHT22;56152;49.996;18.980;2024-02-26T17:10:27;10.30;90.90
43647;DHT22;56152;49.996;18.980;2024-02-26T17:15:29;10.30;90.80
43647;DHT22;56152;49.996;18.980;2024-02-26T17:20:32;10.30;90.80
43647;DHT22;56152;49.996;18.980;2024-02-26T17:25:35;10.30;90.90
43647;DHT22;56152;49.996;18.980;2024-02-26T17:30:39;10.30;90.90
43647;DHT22;56152;49.996;18.980;2024-02-26T17:35:42;10.30;90.90
43647;DHT22;56152;49.996;18.980;2024-02-26T17:40:45;10.30;90.90
43647;DHT22;56152;49.996;18.980;2024-02-26T17:45:47;10.30;90.90
43647;DHT22;56152;49.996;18.980;2024-02-26T17:50:50;10.30;90.90
43647;DHT22;56152;49.996;18.980;2024-02-26T17:55:55;10.30;90.90
43647;DHT22;56152;49.996;18.980;2024-02-26T18:01:07;10.20;91.00
43647;DHT22;56152;49.996;18.980;2024-02-26T18:06:13;10.00;91.10
43647;DHT22;56152;49.996;18.980;2024-02-26T18:11:16;9.90;91.20
43647;DHT22;56152;49.996;18.980;2024-02-26T18:16:19;9.80;91.70
43647;DHT22;56152;49.996;18.980;2024-02-26T18:21:23;9.70;91.50
43647;DHT22;56152;49.996;18.980;2024-02-26T18:26:26;9.70;91.60
43647;DHT22;56152;49.996;18.980;2024-02-26T18:31:28;9.70;91.60
43647;DHT22;56152;49.996;18.980;2024-02-26T18:36:34;9.70;91.60
43647;DHT22;56152;49.996;18.980;2024-02-26T18:41:37;9.70;91.60
43647;DHT22;56152;49.996;18.980;2024-02-26T18:46:43;9.60;91.60
43647;DHT22;56152;49.996;18.980;2024-02-26T18:51:47;9.50;91.80
43647;DHT22;56152;49.996;18.980;2024-02-26T18:56:50;9.50;91.90
43647;DHT22;56152;49.996;18.980;2024-02-26T19:01:51;9.50;91.80
43647;DHT22;56152;49.996;18.980;2024-02-26T19:06:56;9.40;91.80
43647;DHT22;56152;49.996;18.980;2024-02-26T19:11:58;9.20;92.10
43647;DHT22;56152;49.996;18.980;2024-02-26T19:17:00;9.00;92.20
43647;DHT22;56152;49.996;18.980;2024-02-26T19:22:04;8.90;92.70
43647;DHT22;56152;49.996;18.980;2024-02-26T19:27:09;8.70;92.50
43647;DHT22;56152;49.996;18.980;2024-02-26T19:32:14;8.50;92.60
43647;DHT22;56152;49.996;18.980;2024-02-26T19:37:18;8.40;92.70
43647;DHT22;56152;49.996;18.980;2024-02-26T19:42:20;8.20;92.80
43647;DHT22;56152;49.996;18.980;2024-02-26T19:47:26;8.10;92.90
43647;DHT22;56152;49.996;18.980;2024-02-26T19:52:32;8.00;93.10
43647;DHT22;56152;49.996;18.980;2024-02-26T19:57:35;7.90;93.20
43647;DHT22;56152;49.996;18.980;2024-02-26T20:02:37;7.80;93.30
43647;DHT22;56152;49.996;18.980;2024-02-26T20:07:40;7.80;93.30
43647;DHT22;56152;49.996;18.980;2024-02-26T20:12:42;7.80;93.30
43647;DHT22;56152;49.996;18.980;2024-02-26T20:17:44;7.70;93.30
43647;DHT22;56152;49.996;18.980;2024-02-26T20:22:48;7.70;93.40
43647;DHT22;56152;49.996;18.980;2024-02-26T20:27:50;7.60;93.40
43647;DHT22;56152;49.996;18.980;2024-02-26T20:32:51;7.50;93.40
43647;DHT22;56152;49.996;18.980;2024-02-26T20:37:57;7.30;93.50
43647;DHT22;56152;49.996;18.980;2024-02-26T20:42:59;7.00;93.60
43647;DHT22;56152;49.996;18.980;2024-02-26T20:48:02;6.90;93.70
43647;DHT22;56152;49.996;18.980;2024-02-26T20:53:06;6.80;94.00
43647;DHT22;56152;49.996;18.980;2024-02-26T20:58:08;6.70;94.00
43647;DHT22;56152;49.996;18.980;2024-02-26T21:03:10;6.70;94.10
43647;DHT22;56152;49.996;18.980;2024-02-26T21:08:13;6.60;94.10
43647;DHT22;56152;49.996;18.980;2024-02-26T21:13:16;6.50;94.10
43647;DHT22;56152;49.996;18.980;2024-02-26T21:18:19;6.40;94.10
43647;DHT22;56152;49.996;18.980;2024-02-26T21:23:23;6.40;94.20
43647;DHT22;56152;49.996;18.980;2024-02-26T21:28:25;6.30;94.20
43647;DHT22;56152;49.996;18.980;2024-02-26T21:33:30;6.20;94.20
43647;DHT22;56152;49.996;18.980;2024-02-26T21:38:36;6.00;94.20
43647;DHT22;56152;49.996;18.980;2024-02-26T21:43:38;5.90;94.30
43647;DHT22;56152;49.996;18.980;2024-02-26T21:48:40;5.80;94.40
43647;DHT22;56152;49.996;18.980;2024-02-26T21:53:44;5.70;94.40
43647;DHT22;56152;49.996;18.980;2024-02-26T21:58:47;5.60;94.50
43647;DHT22;56152;49.996;18.980;2024-02-26T22:03:49;5.50;94.60
43647;DHT22;56152;49.996;18.980;2024-02-26T22:08:54;5.50;94.60
43647;DHT22;56152;49.996;18.980;2024-02-26T22:13:56;5.40;94.70
43647;DHT22;56152;49.996;18.980;2024-02-26T22:19:00;5.30;94.70
43647;DHT22;56152;49.996;18.980;2024-02-26T22:24:04;5.20;94.90
43647;DHT22;56152;49.996;18.980;2024-02-26T22:29:09;5.20;95.00
43647;DHT22;56152;49.996;18.980;2024-02-26T22:34:17;5.20;95.00
43647;DHT22;56152;49.996;18.980;2024-02-26T22:39:21;5.10;95.00
43647;DHT22;56152;49.996;18.980;2024-02-26T22:44:23;5.10;95.00
43647;DHT22;56152;49.996;18.980;2024-02-26T22:49:25;5.00;95.00
43647;DHT22;56152;49.996;18.980;2024-02-26T22:54:38;4.90;95.10
43647;DHT22;56152;49.996;18.980;2024-02-26T22:59:40;4.90;95.30
43647;DHT22;56152;49.996;18.980;2024-02-26T23:04:42;4.80;95.30
43647;DHT22;56152;49.996;18.980;2024-02-26T23:10:02;4.90;95.20
43647;DHT22;56152;49.996;18.980;2024-02-26T23:15:04;4.90;95.20
43647;DHT22;56152;49.996;18.980;2024-02-26T23:20:07;4.90;95.10
43647;DHT22;56152;49.996;18.980;2024-02-26T23:25:13;4.70;95.10
43647;DHT22;56152;49.996;18.980;2024-02-26T23:30:15;4.60;95.30
43647;DHT22;56152;49.996;18.980;2024-02-26T23:35:19;4.60;95.30
43647;DHT22;56152;49.996;18.980;2024-02-26T23:40:28;4.50;95.40
43647;DHT22;56152;49.996;18.980;2024-02-26T23:45:35;4.50;95.80
43647;DHT22;56152;49.996;18.980;2024-02-26T23:50:38;4.50;95.50
43647;DHT22;56152;49.996;18.980;2024-02-26T23:55:43;4.40;95.40
